createdAt,value
2024-05-09T00:00:04.913Z,9.75
2024-05-09T00:02:08.562Z,9.77
2024-05-09T00:04:10.888Z,8.93
2024-05-09T00:06:13.545Z,9.75
2024-05-09T00:08:16.645Z,10.20
2024-05-09T00:10:25.556Z,9.25
2024-05-09T00:12:35.394Z,8.32
2024-05-09T00:14:37.676Z,9.07
2024-05-09T00:16:39.742Z,8.80
2024-05-09T00:18:42.100Z,9.73
2024-05-09T00:20:44.433Z,8.85
2024-05-09T00:22:46.742Z,9.25
2024-05-09T00:24:48.969Z,9.55
2024-05-09T00:26:51.136Z,9.57
2024-05-09T00:28:53.323Z,9.43
2024-05-09T00:30:55.488Z,9.18
2024-05-09T00:32:57.890Z,9.00
2024-05-09T00:35:00.301Z,9.20
2024-05-09T00:37:02.513Z,9.68
2024-05-09T00:39:04.654Z,9.25
2024-05-09T00:41:06.868Z,8.60
2024-05-09T00:43:10.391Z,9.35
2024-05-09T00:45:13.233Z,9.80
2024-05-09T00:47:15.669Z,9.18
2024-05-09T00:49:18.005Z,8.80
2024-05-09T00:51:20.429Z,9.55
2024-05-09T00:53:22.756Z,9.05
2024-05-09T00:55:25.603Z,9.25
2024-05-09T00:57:28.299Z,8.27
2024-05-09T00:59:31.171Z,9.20
2024-05-09T01:01:33.665Z,8.57
2024-05-09T01:03:36.676Z,8.95
2024-05-09T01:05:39.716Z,8.98
2024-05-09T01:07:43.138Z,9.02
2024-05-09T01:09:45.264Z,9.48
2024-05-09T01:11:47.646Z,8.43
2024-05-09T01:13:50.021Z,9.32
2024-05-09T01:15:55.426Z,9.13
2024-05-09T01:17:58.527Z,8.75
2024-05-09T01:20:01.030Z,8.13
2024-05-09T01:22:04.665Z,9.00
2024-05-09T01:24:06.894Z,9.35
2024-05-09T01:26:09.025Z,8.90
2024-05-09T01:28:11.358Z,9.40
2024-05-09T01:30:17.428Z,8.77
2024-05-09T01:32:23.723Z,9.63
2024-05-09T01:34:26.785Z,8.32
2024-05-09T01:36:29.012Z,8.85
2024-05-09T01:38:31.246Z,8.68
2024-05-09T01:40:38.605Z,9.77
2024-05-09T01:42:42.530Z,9.43
2024-05-09T01:44:44.639Z,9.43
2024-05-09T01:46:46.883Z,9.32
2024-05-09T01:48:49.088Z,9.93
2024-05-09T01:50:51.614Z,9.38
2024-05-09T01:52:53.843Z,9.52
2024-05-09T01:54:56.024Z,9.05
2024-05-09T01:56:58.160Z,9.70
2024-05-09T01:59:02.931Z,8.65
2024-05-09T02:01:05.362Z,9.43
2024-05-09T02:03:13.561Z,9.23
2024-05-09T02:05:18.872Z,7.75
2024-05-09T02:07:21.120Z,7.50
2024-05-09T02:09:23.207Z,8.15
2024-05-09T02:11:25.560Z,7.53
2024-05-09T02:13:27.842Z,7.88
2024-05-09T02:15:29.946Z,8.50
2024-05-09T02:17:32.105Z,8.52
2024-05-09T02:19:34.464Z,8.25
2024-05-09T02:21:37.892Z,8.13
2024-05-09T02:23:40.020Z,7.00
2024-05-09T02:25:42.407Z,7.05
2024-05-09T02:27:44.532Z,8.63
2024-05-09T02:29:46.607Z,7.35
2024-05-09T02:31:48.959Z,6.68
2024-05-09T02:33:52.108Z,7.07
2024-05-09T02:35:54.556Z,7.25
2024-05-09T02:37:56.717Z,6.88
2024-05-09T02:39:58.859Z,7.10
2024-05-09T02:42:00.972Z,6.97
2024-05-09T02:44:03.293Z,7.10
2024-05-09T02:46:07.107Z,7.07
2024-05-09T02:48:13.633Z,7.05
2024-05-09T02:50:25.954Z,7.13
2024-05-09T02:52:32.325Z,6.30
2024-05-09T02:54:34.529Z,7.30
2024-05-09T02:56:36.770Z,7.50
2024-05-09T02:58:38.946Z,7.80
2024-05-09T03:00:42.958Z,6.85
2024-05-09T03:02:45.625Z,7.53
2024-05-09T03:04:48.054Z,8.63
2024-05-09T03:06:50.211Z,7.10
2024-05-09T03:08:52.453Z,7.43
2024-05-09T03:10:56.839Z,8.55
2024-05-09T03:12:59.170Z,7.35
2024-05-09T03:15:01.354Z,7.35
2024-05-09T03:17:03.796Z,7.53
2024-05-09T03:19:06.166Z,7.88
2024-05-09T03:21:08.907Z,8.65
2024-05-09T03:23:11.271Z,8.00
2024-05-09T03:25:13.562Z,8.80
2024-05-09T03:27:15.671Z,7.85
2024-05-09T03:29:17.866Z,8.15
2024-05-09T03:31:20.001Z,8.48
2024-05-09T03:33:22.540Z,9.15
2024-05-09T03:35:25.000Z,8.68
2024-05-09T03:37:27.494Z,9.05
2024-05-09T03:39:29.696Z,9.18
2024-05-09T03:41:31.939Z,9.25
2024-05-09T03:43:34.187Z,9.63
2024-05-09T03:45:36.287Z,9.75
2024-05-09T03:47:38.531Z,12.70
2024-05-09T03:49:40.827Z,13.43
2024-05-09T03:51:43.098Z,9.95
2024-05-09T03:53:45.251Z,10.18
2024-05-09T03:55:47.482Z,10.20
2024-05-09T03:57:49.713Z,9.88
2024-05-09T03:59:51.856Z,10.85
2024-05-09T04:01:55.108Z,10.10
2024-05-09T04:03:57.280Z,9.80
2024-05-09T04:05:59.589Z,9.93
2024-05-09T04:08:02.022Z,9.57
2024-05-09T04:10:06.802Z,10.20
2024-05-09T04:12:11.079Z,9.60
2024-05-09T04:14:13.380Z,10.25
2024-05-09T04:16:15.610Z,9.35
2024-05-09T04:18:18.506Z,8.45
2024-05-09T04:20:32.382Z,8.68
2024-05-09T04:22:39.963Z,9.18
2024-05-09T04:24:42.172Z,9.98
2024-05-09T04:26:44.321Z,9.80
2024-05-09T04:28:46.710Z,9.45
2024-05-09T04:30:48.823Z,9.55
2024-05-09T04:32:51.273Z,8.60
2024-05-09T04:34:53.439Z,8.70
2024-05-09T04:36:55.563Z,8.13
2024-05-09T04:38:57.583Z,8.40
2024-05-09T04:40:59.856Z,7.05
2024-05-09T04:43:02.148Z,6.95
2024-05-09T04:45:04.627Z,7.07
2024-05-09T04:47:06.948Z,7.20
2024-05-09T04:49:09.284Z,7.00
2024-05-09T04:51:11.518Z,6.75
2024-05-09T04:53:17.084Z,6.03
2024-05-09T04:55:19.405Z,5.70
2024-05-09T04:57:21.743Z,5.20
2024-05-09T04:59:24.243Z,5.30
2024-05-09T05:01:26.662Z,4.65
2024-05-09T05:03:29.306Z,4.80
2024-05-09T05:05:31.663Z,4.70
2024-05-09T05:07:34.121Z,4.20
2024-05-09T05:09:36.311Z,4.25
2024-05-09T05:11:38.713Z,4.50
2024-05-09T05:13:41.703Z,4.18
2024-05-09T05:15:44.346Z,3.50
2024-05-09T05:17:46.710Z,4.32
2024-05-09T05:19:49.065Z,3.88
2024-05-09T05:21:51.374Z,3.60
2024-05-09T05:23:53.578Z,3.38
2024-05-09T05:25:56.000Z,3.50
2024-05-09T05:27:58.408Z,3.38
2024-05-09T05:30:00.507Z,3.70
2024-05-09T05:32:03.082Z,3.50
2024-05-09T05:34:05.275Z,3.33
2024-05-09T05:36:08.087Z,3.30
2024-05-09T05:38:10.777Z,3.00
2024-05-09T05:40:20.680Z,3.15
2024-05-09T05:42:27.192Z,3.28
2024-05-09T05:44:29.435Z,3.38
2024-05-09T05:46:31.671Z,2.78
2024-05-09T05:48:34.055Z,3.85
2024-05-09T05:50:38.180Z,3.05
2024-05-09T05:52:40.941Z,3.13
2024-05-09T05:54:43.107Z,2.72
2024-05-09T05:56:45.379Z,3.35
2024-05-09T05:58:47.573Z,2.97
2024-05-09T06:00:53.431Z,3.47
2024-05-09T06:02:56.076Z,3.00
2024-05-09T06:04:59.691Z,3.13
2024-05-09T06:07:01.932Z,2.95
2024-05-09T06:09:05.879Z,3.40
2024-05-09T06:11:08.108Z,3.17
2024-05-09T06:13:11.759Z,3.08
2024-05-09T06:15:14.412Z,3.15
2024-05-09T06:17:16.799Z,2.72
2024-05-09T06:19:19.994Z,3.10
2024-05-09T06:21:22.168Z,2.83
2024-05-09T06:23:24.443Z,3.00
2024-05-09T06:25:27.130Z,3.70
2024-05-09T06:27:29.353Z,3.05
2024-05-09T06:29:31.790Z,3.35
2024-05-09T06:31:40.442Z,3.53
2024-05-09T06:33:42.724Z,3.55
2024-05-09T06:35:46.323Z,3.03
2024-05-09T06:37:48.713Z,3.10
2024-05-09T06:39:51.086Z,3.05
2024-05-09T06:41:56.678Z,3.13
2024-05-09T06:44:01.572Z,2.60
2024-05-09T06:46:04.475Z,2.72
2024-05-09T06:48:07.835Z,2.83
2024-05-09T06:50:19.606Z,2.85
2024-05-09T06:52:25.677Z,3.33
2024-05-09T06:54:27.935Z,2.78
2024-05-09T06:56:30.239Z,2.85
2024-05-09T06:58:32.613Z,2.83
2024-05-09T07:00:39.623Z,2.60
2024-05-09T07:02:43.539Z,2.90
2024-05-09T07:04:46.087Z,2.90
2024-05-09T07:06:48.383Z,3.13
2024-05-09T07:08:52.396Z,2.45
2024-05-09T07:10:55.076Z,2.70
2024-05-09T07:12:57.279Z,2.95
2024-05-09T07:14:59.443Z,2.78
2024-05-09T07:17:01.845Z,3.13
2024-05-09T07:19:04.587Z,3.03
2024-05-09T07:21:06.950Z,2.75
2024-05-09T07:23:10.312Z,3.00
2024-05-09T07:25:12.603Z,2.85
2024-05-09T07:27:14.792Z,2.78
2024-05-09T07:29:17.256Z,2.75
2024-05-09T07:31:19.551Z,2.78
2024-05-09T07:33:23.967Z,2.90
2024-05-09T07:35:27.072Z,2.25
2024-05-09T07:37:29.342Z,2.40
2024-05-09T07:39:31.538Z,2.20
2024-05-09T07:41:33.761Z,1.85
2024-05-09T07:43:35.927Z,1.85
2024-05-09T07:45:48.516Z,1.80
2024-05-09T07:49:44.131Z,1.65
2024-05-09T07:53:30.189Z,2.47
2024-05-09T07:54:48.244Z,1.83
2024-05-09T07:56:50.507Z,1.85
2024-05-09T07:58:56.482Z,1.85
2024-05-09T08:00:58.788Z,1.73
2024-05-09T08:03:01.197Z,1.50
2024-05-09T08:05:03.560Z,2.15
2024-05-09T08:07:05.903Z,1.40
2024-05-09T08:09:13.596Z,1.75
2024-05-09T08:11:20.632Z,1.40
2024-05-09T08:13:23.297Z,1.80
2024-05-09T08:15:25.828Z,2.03
2024-05-09T08:17:29.448Z,1.70
2024-05-09T08:19:32.141Z,2.10
2024-05-09T08:21:40.579Z,1.90
2024-05-09T08:23:42.988Z,1.90
2024-05-09T08:25:45.112Z,2.58
2024-05-09T08:27:47.219Z,2.22
2024-05-09T08:29:49.405Z,1.90
2024-05-09T08:31:55.999Z,2.20
2024-05-09T08:33:58.292Z,1.75
2024-05-09T08:36:00.635Z,1.92
2024-05-09T08:38:07.494Z,1.98
2024-05-09T08:40:23.595Z,1.83
2024-05-09T08:42:35.986Z,1.95
2024-05-09T08:44:38.211Z,2.20
2024-05-09T08:46:41.663Z,2.15
2024-05-09T08:48:45.872Z,2.08
2024-05-09T08:50:48.180Z,2.35
2024-05-09T08:52:50.248Z,2.38
2024-05-09T08:54:54.960Z,2.22
2024-05-09T08:56:57.965Z,2.35
2024-05-09T08:59:02.449Z,1.95
2024-05-09T09:01:05.328Z,2.30
2024-05-09T09:03:10.247Z,2.60
2024-05-09T09:05:17.319Z,2.70
2024-05-09T09:07:19.815Z,2.00
2024-05-09T09:09:22.065Z,2.65
2024-05-09T09:11:24.331Z,2.40
2024-05-09T09:13:27.353Z,2.50
2024-05-09T09:15:29.857Z,2.45
2024-05-09T09:17:32.080Z,2.38
2024-05-09T09:19:35.547Z,2.20
2024-05-09T09:21:37.837Z,2.70
2024-05-09T09:23:40.117Z,2.60
2024-05-09T09:25:42.460Z,2.70
2024-05-09T09:27:44.581Z,2.88
2024-05-09T09:29:47.562Z,2.50
2024-05-09T09:32:11.477Z,2.30
2024-05-09T09:34:13.773Z,2.90
2024-05-09T09:36:18.564Z,2.60
2024-05-09T09:38:23.488Z,3.08
2024-05-09T09:40:32.287Z,2.63
2024-05-09T09:42:37.908Z,2.60
2024-05-09T09:44:42.285Z,2.53
2024-05-09T09:46:47.305Z,2.60
2024-05-09T09:48:49.681Z,4.32
2024-05-09T09:50:53.002Z,3.50
2024-05-09T09:52:55.672Z,2.85
2024-05-09T09:54:58.202Z,3.08
2024-05-09T09:57:01.252Z,2.85
2024-05-09T09:59:04.872Z,2.30
2024-05-09T10:01:07.061Z,3.03
2024-05-09T10:03:09.751Z,2.53
2024-05-09T10:05:12.316Z,2.42
2024-05-09T10:07:15.283Z,2.50
2024-05-09T10:09:18.371Z,2.67
2024-05-09T10:11:24.008Z,2.22
2024-05-09T10:13:35.068Z,3.03
2024-05-09T10:15:54.532Z,2.55
2024-05-09T10:18:15.611Z,2.08
2024-05-09T10:20:22.173Z,2.38
2024-05-09T10:22:31.020Z,1.92
2024-05-09T10:24:53.354Z,2.05
2024-05-09T10:26:56.438Z,1.90
2024-05-09T10:28:59.235Z,2.08
2024-05-09T10:31:13.671Z,2.70
2024-05-09T10:33:20.304Z,2.60
2024-05-09T10:35:25.467Z,2.50
2024-05-09T10:37:30.984Z,2.03
2024-05-09T10:39:39.299Z,2.17
2024-05-09T10:41:41.471Z,1.70
2024-05-09T10:43:43.725Z,3.20
2024-05-09T10:45:45.882Z,2.65
2024-05-09T10:47:48.098Z,1.80
2024-05-09T10:49:50.619Z,2.30
2024-05-09T10:51:53.433Z,1.83
2024-05-09T10:53:57.172Z,1.90
2024-05-09T10:56:00.874Z,2.10
2024-05-09T10:58:02.962Z,1.85
2024-05-09T11:00:10.081Z,1.98
2024-05-09T11:02:17.299Z,1.85
2024-05-09T11:04:20.209Z,2.20
2024-05-09T11:06:23.676Z,2.08
2024-05-09T11:08:25.976Z,1.65
2024-05-09T11:10:33.724Z,1.73
2024-05-09T11:12:36.689Z,1.50
2024-05-09T11:14:39.138Z,1.60
2024-05-09T11:16:41.396Z,1.42
2024-05-09T11:18:43.954Z,1.40
2024-05-09T11:20:46.454Z,1.00
2024-05-09T11:22:48.681Z,1.20
2024-05-09T11:24:50.852Z,1.55
2024-05-09T11:26:53.009Z,1.60
2024-05-09T11:28:55.174Z,1.67
2024-05-09T11:31:09.085Z,2.03
2024-05-09T11:33:14.642Z,1.65
2024-05-09T11:35:16.846Z,2.42
2024-05-09T11:37:19.294Z,2.28
2024-05-09T11:39:21.465Z,2.40
2024-05-09T11:41:23.981Z,2.42
2024-05-09T11:43:26.223Z,3.63
2024-05-09T11:45:28.463Z,2.50
2024-05-09T11:47:30.850Z,3.60
2024-05-09T11:49:33.272Z,2.25
2024-05-09T11:51:35.584Z,2.30
2024-05-09T11:53:37.868Z,2.42
2024-05-09T11:55:39.908Z,2.47
2024-05-09T11:57:42.106Z,2.17
2024-05-09T11:59:44.575Z,2.00
2024-05-09T12:01:46.875Z,2.15
2024-05-09T12:03:49.776Z,2.30
2024-05-09T12:05:52.090Z,2.58
2024-05-09T12:07:54.965Z,2.58
2024-05-09T12:09:57.056Z,2.10
2024-05-09T12:11:59.210Z,2.47
2024-05-09T12:14:01.542Z,2.30
2024-05-09T12:16:03.969Z,2.03
2024-05-09T12:18:08.016Z,1.90
2024-05-09T12:20:20.917Z,1.73
2024-05-09T12:22:27.858Z,1.80
2024-05-09T12:24:30.682Z,2.00
2024-05-09T12:26:32.793Z,1.80
2024-05-09T12:28:34.861Z,2.20
2024-05-09T12:30:41.615Z,1.65
2024-05-09T12:32:46.292Z,1.75
2024-05-09T12:34:48.556Z,1.85
2024-05-09T12:36:50.660Z,1.90
2024-05-09T12:38:52.962Z,2.17
2024-05-09T12:40:55.231Z,2.15
2024-05-09T12:42:57.568Z,2.30
2024-05-09T12:44:59.745Z,1.90
2024-05-09T12:47:01.857Z,2.03
2024-05-09T12:49:04.711Z,2.35
2024-05-09T12:51:07.165Z,2.10
2024-05-09T12:53:09.461Z,1.98
2024-05-09T12:55:11.752Z,1.70
2024-05-09T12:57:13.974Z,1.98
2024-05-09T12:59:16.128Z,1.33
2024-05-09T13:01:18.278Z,1.88
2024-05-09T13:03:20.675Z,1.80
2024-05-09T13:05:23.097Z,1.55
2024-05-09T13:07:25.853Z,1.75
2024-05-09T13:09:28.031Z,1.55
2024-05-09T13:11:30.438Z,1.70
2024-05-09T13:13:32.617Z,1.73
2024-05-09T13:15:35.056Z,1.92
2024-05-09T13:17:37.481Z,1.80
2024-05-09T13:19:39.564Z,1.35
2024-05-09T13:21:41.687Z,1.60
2024-05-09T13:23:44.471Z,1.27
2024-05-09T13:25:46.837Z,1.65
2024-05-09T13:27:49.042Z,1.88
2024-05-09T13:29:51.325Z,1.35
2024-05-09T13:31:53.435Z,1.48
2024-05-09T13:33:55.636Z,1.70
2024-05-09T13:35:58.018Z,1.80
2024-05-09T13:38:02.177Z,1.92
2024-05-09T13:40:07.090Z,1.60
2024-05-09T13:44:12.244Z,1.77
2024-05-09T13:46:14.631Z,1.60
2024-05-09T13:48:17.519Z,1.60
2024-05-09T13:50:33.304Z,1.70
2024-05-09T13:52:38.164Z,1.63
2024-05-09T13:54:40.209Z,1.50
2024-05-09T13:56:42.442Z,1.60
2024-05-09T13:58:44.644Z,1.45
2024-05-09T14:00:48.985Z,1.20
2024-05-09T14:02:51.773Z,1.63
2024-05-09T14:04:54.595Z,1.80
2024-05-09T14:06:56.881Z,1.83
2024-05-09T14:08:59.227Z,2.25
2024-05-09T14:11:01.512Z,1.95
2024-05-09T14:13:03.775Z,1.52
2024-05-09T14:15:06.361Z,1.98
2024-05-09T14:17:08.811Z,1.55
2024-05-09T14:19:11.281Z,2.10
2024-05-09T14:21:13.598Z,1.80
2024-05-09T14:23:18.115Z,1.85
2024-05-09T14:25:20.347Z,1.75
2024-05-09T14:27:22.678Z,1.73
2024-05-09T14:29:24.824Z,2.20
2024-05-09T14:31:27.234Z,1.55
2024-05-09T14:33:30.891Z,2.08
2024-05-09T14:35:33.211Z,2.22
2024-05-09T14:37:37.886Z,2.00
2024-05-09T14:39:41.980Z,1.88
2024-05-09T14:41:44.162Z,2.33
2024-05-09T14:43:46.467Z,1.70
2024-05-09T14:45:48.803Z,1.70
2024-05-09T14:47:51.600Z,2.53
2024-05-09T14:49:53.967Z,2.28
2024-05-09T14:51:56.394Z,2.25
2024-05-09T14:53:58.559Z,2.78
2024-05-09T14:56:00.790Z,3.58
2024-05-09T14:58:03.349Z,2.70
2024-05-09T15:00:11.392Z,2.20
2024-05-09T15:02:19.451Z,2.55
2024-05-09T15:04:22.154Z,1.85
2024-05-09T15:06:24.461Z,1.83
2024-05-09T15:08:26.726Z,2.70
2024-05-09T15:10:34.706Z,2.30
2024-05-09T15:12:38.711Z,1.83
2024-05-09T15:14:41.295Z,1.75
2024-05-09T15:16:43.514Z,2.08
2024-05-09T15:18:45.770Z,1.90
2024-05-09T15:20:48.548Z,1.80
2024-05-09T15:22:50.891Z,2.00
2024-05-09T15:24:54.585Z,5.97
2024-05-09T15:26:56.806Z,1.90
2024-05-09T15:28:59.508Z,3.00
2024-05-09T15:31:01.937Z,2.10
2024-05-09T15:33:04.854Z,1.90
2024-05-09T15:35:10.432Z,1.98
2024-05-09T15:37:13.722Z,1.52
2024-05-09T15:39:15.985Z,2.28
2024-05-09T15:41:18.302Z,2.80
2024-05-09T15:43:20.667Z,1.88
2024-05-09T15:45:22.775Z,6.32
2024-05-09T15:47:24.899Z,3.75
2024-05-09T15:49:30.061Z,5.38
2024-05-09T15:51:33.007Z,6.78
2024-05-09T15:54:12.592Z,2.17
2024-05-09T15:56:15.000Z,2.95
2024-05-09T15:58:18.504Z,1.50
2024-05-09T16:00:29.094Z,2.05
2024-05-09T16:02:39.296Z,2.00
2024-05-09T16:04:41.574Z,2.50
2024-05-09T16:06:48.189Z,2.50
2024-05-09T16:08:50.403Z,1.70
2024-05-09T16:10:52.613Z,2.28
2024-05-09T16:12:55.107Z,2.20
2024-05-09T16:14:57.182Z,1.80
2024-05-09T16:16:59.576Z,1.75
2024-05-09T16:19:01.970Z,7.40
2024-05-09T16:21:05.596Z,6.53
2024-05-09T16:23:08.798Z,3.13
2024-05-09T16:25:11.436Z,2.30
2024-05-09T16:27:13.673Z,2.72
2024-05-09T16:29:15.970Z,3.20
2024-05-09T16:31:18.108Z,2.20
2024-05-09T16:33:25.823Z,5.50
2024-05-09T16:35:28.313Z,4.90
2024-05-09T16:37:30.450Z,9.20
2024-05-09T16:39:32.862Z,8.18
2024-05-09T16:41:35.055Z,3.67
2024-05-09T16:43:37.207Z,2.83
2024-05-09T16:45:44.983Z,3.47
2024-05-09T16:47:47.493Z,3.20
2024-05-09T16:49:49.730Z,3.50
2024-05-09T16:51:51.951Z,4.65
2024-05-09T16:53:54.158Z,2.85
2024-05-09T16:55:59.301Z,4.40
2024-05-09T17:00:07.344Z,4.57
2024-05-09T17:02:15.317Z,4.32
2024-05-09T17:04:17.959Z,2.58
2024-05-09T17:06:20.188Z,3.40
2024-05-09T17:08:22.406Z,3.15
2024-05-09T17:10:31.345Z,3.17
2024-05-09T17:12:35.612Z,3.58
2024-05-09T17:14:37.800Z,3.10
2024-05-09T17:16:40.263Z,3.75
2024-05-09T17:18:42.479Z,3.35
2024-05-09T17:20:44.646Z,3.13
2024-05-09T17:22:46.983Z,2.30
2024-05-09T17:24:49.147Z,4.28
2024-05-09T17:26:53.042Z,3.70
2024-05-09T17:28:55.313Z,3.53
2024-05-09T17:30:58.270Z,1.75
2024-05-09T17:33:00.764Z,3.10
2024-05-09T17:35:05.430Z,4.30
2024-05-09T17:37:07.704Z,2.38
2024-05-09T17:39:09.825Z,1.70
2024-05-09T17:41:11.919Z,2.13
2024-05-09T17:43:14.015Z,2.38
2024-05-09T17:45:16.469Z,2.30
2024-05-09T17:47:19.046Z,4.35
2024-05-09T17:49:21.203Z,2.70
2024-05-09T17:51:23.410Z,2.92
2024-05-09T17:53:25.824Z,2.88
2024-05-09T17:55:28.772Z,2.60
2024-05-09T17:57:31.209Z,2.53
2024-05-09T17:59:33.665Z,4.40
2024-05-09T18:01:35.984Z,2.78
2024-05-09T18:03:39.666Z,2.67
2024-05-09T18:05:43.667Z,3.15
2024-05-09T18:07:46.829Z,2.83
2024-05-09T18:09:48.953Z,4.20
2024-05-09T18:11:51.169Z,7.07
2024-05-09T18:13:54.402Z,6.20
2024-05-09T18:15:58.841Z,3.30
2024-05-09T18:18:01.702Z,4.55
2024-05-09T18:20:05.784Z,4.32
2024-05-09T18:22:07.993Z,3.60
2024-05-09T18:24:10.526Z,3.25
2024-05-09T18:26:13.164Z,3.35
2024-05-09T18:28:17.077Z,5.00
2024-05-09T18:30:27.418Z,3.40
2024-05-09T18:32:34.014Z,3.65
2024-05-09T18:34:36.193Z,5.57
2024-05-09T18:36:38.898Z,3.65
2024-05-09T18:38:41.030Z,1.95
2024-05-09T18:40:45.926Z,2.38
2024-05-09T18:42:50.561Z,2.30
2024-05-09T18:44:52.803Z,2.17
2024-05-09T18:46:55.182Z,2.35
2024-05-09T18:48:58.184Z,2.10
2024-05-09T18:51:00.503Z,1.95
2024-05-09T18:53:03.020Z,2.42
2024-05-09T18:55:05.773Z,1.95
2024-05-09T18:57:08.721Z,2.63
2024-05-09T18:59:10.966Z,2.00
2024-05-09T19:01:13.608Z,2.17
2024-05-09T19:03:16.238Z,2.10
2024-05-09T19:05:18.632Z,2.50
2024-05-09T19:07:20.831Z,2.10
2024-05-09T19:09:22.897Z,2.60
2024-05-09T19:11:24.983Z,2.22
2024-05-09T19:13:27.449Z,2.65
2024-05-09T19:15:29.667Z,2.00
2024-05-09T19:17:31.940Z,2.03
2024-05-09T19:19:34.407Z,2.10
2024-05-09T19:21:37.939Z,2.03
2024-05-09T19:23:47.167Z,2.30
2024-05-09T19:25:54.209Z,1.80
2024-05-09T19:27:56.526Z,1.83
2024-05-09T19:29:58.791Z,2.00
2024-05-09T19:32:01.385Z,2.20
2024-05-09T19:34:03.573Z,2.28
2024-05-09T19:36:07.157Z,2.08
2024-05-09T19:38:09.471Z,2.33
2024-05-09T19:40:18.288Z,2.40
2024-05-09T19:42:27.801Z,2.30
2024-05-09T19:44:29.924Z,2.72
2024-05-09T19:46:32.098Z,2.40
2024-05-09T19:48:34.666Z,2.78
2024-05-09T19:50:42.382Z,2.90
2024-05-09T19:52:46.515Z,2.40
2024-05-09T19:54:50.127Z,2.25
2024-05-09T19:56:52.418Z,2.53
2024-05-09T19:58:55.389Z,2.90
2024-05-09T20:00:57.517Z,2.15
2024-05-09T20:02:59.961Z,2.08
2024-05-09T20:05:03.750Z,2.72
2024-05-09T20:07:06.049Z,2.70
2024-05-09T20:09:08.297Z,2.50
2024-05-09T20:11:10.834Z,2.17
2024-05-09T20:13:14.037Z,2.67
2024-05-09T20:15:16.399Z,2.45
2024-05-09T20:17:18.687Z,3.05
2024-05-09T20:19:21.381Z,2.70
2024-05-09T20:21:24.881Z,2.30
2024-05-09T20:23:27.334Z,2.30
2024-05-09T20:25:29.368Z,2.78
2024-05-09T20:27:31.582Z,3.15
2024-05-09T20:29:33.884Z,2.50
2024-05-09T20:31:36.084Z,2.85
2024-05-09T20:33:39.678Z,2.80
2024-05-09T20:35:41.953Z,2.22
2024-05-09T20:37:44.063Z,2.35
2024-05-09T20:39:46.254Z,2.88
2024-05-09T20:41:48.620Z,2.10
2024-05-09T20:43:50.765Z,2.20
2024-05-09T20:45:53.046Z,2.72
2024-05-09T20:47:55.592Z,1.90
2024-05-09T20:49:57.837Z,2.10
2024-05-09T20:52:00.046Z,1.90
2024-05-09T20:54:02.123Z,1.98
2024-05-09T20:56:04.433Z,2.20
2024-05-09T20:58:06.678Z,2.28
2024-05-09T21:00:15.027Z,1.98
2024-05-09T21:02:21.145Z,1.90
2024-05-09T21:04:23.749Z,2.47
2024-05-09T21:06:26.025Z,2.15
2024-05-09T21:08:28.202Z,2.10
2024-05-09T21:10:33.258Z,2.17
2024-05-09T21:12:36.467Z,1.95
2024-05-09T21:14:39.024Z,2.10
2024-05-09T21:16:41.374Z,1.85
2024-05-09T21:18:43.966Z,1.80
2024-05-09T21:20:46.161Z,2.20
2024-05-09T21:22:48.299Z,2.22
2024-05-09T21:24:50.860Z,2.10
2024-05-09T21:26:53.409Z,2.00
2024-05-09T21:28:55.637Z,2.42
2024-05-09T21:30:57.758Z,2.60
2024-05-09T21:33:00.515Z,2.42
2024-05-09T21:35:02.679Z,2.30
2024-05-09T21:37:05.113Z,2.30
2024-05-09T21:39:10.492Z,2.35
2024-05-09T21:43:15.049Z,2.30
2024-05-09T21:45:17.266Z,1.92
2024-05-09T21:47:19.791Z,2.28
2024-05-09T21:49:22.288Z,2.15
2024-05-09T21:51:25.319Z,3.03
2024-05-09T21:53:27.464Z,2.80
2024-05-09T21:55:30.213Z,2.65
2024-05-09T21:57:32.460Z,2.50
2024-05-09T21:59:34.751Z,3.03
2024-05-09T22:01:36.976Z,3.00
2024-05-09T22:03:39.321Z,2.70
2024-05-09T22:05:43.808Z,2.95
2024-05-09T22:07:45.950Z,2.80
2024-05-09T22:09:48.151Z,3.15
2024-05-09T22:11:52.578Z,3.25
2024-05-09T22:15:57.519Z,3.45
2024-05-09T22:17:59.736Z,4.10
2024-05-09T22:20:01.879Z,3.35
2024-05-09T22:22:04.236Z,3.30
2024-05-09T22:24:06.791Z,2.97
2024-05-09T22:26:09.191Z,3.63
2024-05-09T22:28:16.380Z,3.25
2024-05-09T22:30:23.997Z,3.22
2024-05-09T22:32:33.740Z,3.47
2024-05-09T22:34:36.114Z,3.17
2024-05-09T22:36:38.337Z,3.28
2024-05-09T22:38:40.442Z,3.30
2024-05-09T22:40:48.018Z,3.60
2024-05-09T22:42:52.094Z,4.10
2024-05-09T22:44:54.351Z,3.92
2024-05-09T22:46:56.651Z,3.65
2024-05-09T22:48:59.012Z,3.95
2024-05-09T22:51:01.211Z,3.45
2024-05-09T22:53:03.892Z,3.90
2024-05-09T22:55:06.586Z,3.60
2024-05-09T22:57:08.965Z,4.32
2024-05-09T22:59:11.335Z,3.58
2024-05-09T23:01:16.542Z,3.67
2024-05-09T23:05:24.375Z,3.50
2024-05-09T23:07:27.146Z,3.67
2024-05-09T23:09:29.208Z,4.07
2024-05-09T23:11:31.312Z,3.70
2024-05-09T23:13:36.806Z,3.53
2024-05-09T23:15:39.257Z,3.75
2024-05-09T23:17:41.718Z,4.00
2024-05-09T23:19:44.361Z,3.95
2024-05-09T23:21:46.601Z,2.78
2024-05-09T23:23:48.729Z,3.45
2024-05-09T23:25:50.788Z,3.95
2024-05-09T23:27:52.893Z,3.70
2024-05-09T23:29:55.013Z,3.70
2024-05-09T23:31:57.341Z,3.33
2024-05-09T23:33:59.640Z,3.42
2024-05-09T23:36:01.896Z,3.88
2024-05-09T23:38:05.029Z,3.83
2024-05-09T23:40:09.649Z,3.20
2024-05-09T23:42:11.928Z,4.18
2024-05-09T23:44:14.050Z,3.33
2024-05-09T23:46:16.172Z,3.72
2024-05-09T23:48:18.578Z,3.30
2024-05-09T23:50:26.529Z,3.63
2024-05-09T23:52:36.316Z,3.67
2024-05-09T23:54:38.547Z,3.75
2024-05-09T23:56:40.647Z,4.40
2024-05-09T23:58:43.284Z,4.10
